createdAt,value
2022-11-21T00:00:59.208Z,88.31
2022-11-21T00:02:10.049Z,88.21
2022-11-21T00:03:12.362Z,88.39
2022-11-21T00:04:14.824Z,88.24
2022-11-21T00:05:16.598Z,88.52
2022-11-21T00:06:19.506Z,88.40
2022-11-21T00:07:21.157Z,88.47
2022-11-21T00:08:23.685Z,88.51
2022-11-21T00:09:25.297Z,88.68
2022-11-21T00:10:27.762Z,88.67
2022-11-21T00:11:29.246Z,88.56
2022-11-21T00:12:31.778Z,88.28
2022-11-21T00:13:33.269Z,88.68
2022-11-21T00:14:35.877Z,88.89
2022-11-21T00:15:39.347Z,88.73
2022-11-21T00:16:41.847Z,88.93
2022-11-21T00:17:43.362Z,88.49
2022-11-21T00:18:45.860Z,88.40
2022-11-21T00:19:47.385Z,88.48
2022-11-21T00:20:49.979Z,88.50
2022-11-21T00:21:51.486Z,88.38
2022-11-21T00:22:53.966Z,88.37
2022-11-21T00:23:55.436Z,88.33
2022-11-21T00:24:57.895Z,88.65
2022-11-21T00:25:59.447Z,88.83
2022-11-21T00:27:01.930Z,88.79
2022-11-21T00:28:03.664Z,88.73
2022-11-21T00:29:06.100Z,88.26
2022-11-21T00:30:10.041Z,88.61
2022-11-21T00:31:21.464Z,88.84
2022-11-21T00:32:23.225Z,89.02
2022-11-21T00:33:25.797Z,88.63
2022-11-21T00:34:27.654Z,88.67
2022-11-21T00:35:32.168Z,88.59
2022-11-21T00:36:33.974Z,88.99
2022-11-21T00:37:36.588Z,88.51
2022-11-21T00:38:38.147Z,88.33
2022-11-21T00:39:40.786Z,88.42
2022-11-21T00:40:42.692Z,88.70
2022-11-21T00:41:45.218Z,88.70
2022-11-21T00:42:46.725Z,88.26
2022-11-21T00:43:49.258Z,88.21
2022-11-21T00:44:50.818Z,88.57
2022-11-21T00:45:53.688Z,88.36
2022-11-21T00:46:56.637Z,88.29
2022-11-21T00:47:59.115Z,88.33
2022-11-21T00:49:00.710Z,88.44
2022-11-21T00:50:03.216Z,88.67
2022-11-21T00:51:04.689Z,88.57
2022-11-21T00:52:07.153Z,88.49
2022-11-21T00:53:08.649Z,88.58
2022-11-21T00:54:11.306Z,88.40
2022-11-21T00:55:12.794Z,88.87
2022-11-21T00:56:15.243Z,88.95
2022-11-21T00:57:16.837Z,88.80
2022-11-21T00:58:19.358Z,88.52
2022-11-21T00:59:20.843Z,88.63
2022-11-21T01:00:23.521Z,88.72
2022-11-21T01:01:25.138Z,88.79
2022-11-21T01:02:29.062Z,88.34
2022-11-21T01:03:32.365Z,88.73
2022-11-21T01:04:36.262Z,88.92
2022-11-21T01:05:37.766Z,88.57
2022-11-21T01:06:40.251Z,88.43
2022-11-21T01:07:41.801Z,88.38
2022-11-21T01:08:45.540Z,88.43
2022-11-21T01:09:47.106Z,88.70
2022-11-21T01:10:49.611Z,88.61
2022-11-21T01:11:51.221Z,88.85
2022-11-21T01:12:53.713Z,88.53
2022-11-21T01:13:55.266Z,88.31
2022-11-21T01:14:57.877Z,88.35
2022-11-21T01:16:03.696Z,88.35
2022-11-21T01:17:06.229Z,88.44
2022-11-21T01:18:10.063Z,88.72
2022-11-21T01:19:12.607Z,88.74
2022-11-21T01:20:14.123Z,88.86
2022-11-21T01:21:18.868Z,88.95
2022-11-21T01:22:20.375Z,88.93
2022-11-21T01:23:22.912Z,89.12
2022-11-21T01:24:24.496Z,88.70
2022-11-21T01:25:27.178Z,88.51
2022-11-21T01:26:30.330Z,88.83
2022-11-21T01:27:33.874Z,88.76
2022-11-21T01:28:35.648Z,88.92
2022-11-21T01:29:38.187Z,88.27
2022-11-21T01:30:39.814Z,88.33
2022-11-21T01:31:42.334Z,88.58
2022-11-21T01:32:47.388Z,88.50
2022-11-21T01:33:51.830Z,88.21
2022-11-21T01:34:53.374Z,88.08
2022-11-21T01:35:55.817Z,88.13
2022-11-21T01:36:57.410Z,88.10
2022-11-21T01:37:59.853Z,88.24
2022-11-21T01:39:03.315Z,88.35
2022-11-21T01:40:06.635Z,88.78
2022-11-21T01:41:08.729Z,88.31
2022-11-21T01:42:13.647Z,88.29
2022-11-21T01:43:16.401Z,88.10
2022-11-21T01:44:20.755Z,88.33
2022-11-21T01:45:53.094Z,87.92
2022-11-21T01:46:55.708Z,87.97
2022-11-21T01:47:57.501Z,87.83
2022-11-21T01:49:05.710Z,87.81
2022-11-21T01:50:12.813Z,87.91
2022-11-21T01:51:20.268Z,88.13
2022-11-21T01:52:27.012Z,87.70
2022-11-21T01:53:28.846Z,88.12
2022-11-21T01:54:37.575Z,87.95
2022-11-21T01:55:39.110Z,88.05
2022-11-21T01:56:45.697Z,88.08
2022-11-21T01:57:49.471Z,88.10
2022-11-21T01:58:54.607Z,88.22
2022-11-21T01:59:59.881Z,87.98
2022-11-21T02:01:03.583Z,87.94
2022-11-21T02:02:09.566Z,88.09
2022-11-21T02:03:15.906Z,87.50
2022-11-21T02:04:20.723Z,88.16
2022-11-21T02:05:25.452Z,88.05
2022-11-21T02:06:28.764Z,88.28
2022-11-21T02:07:34.868Z,88.12
2022-11-21T02:08:38.206Z,88.07
2022-11-21T02:09:44.485Z,87.96
2022-11-21T02:10:53.714Z,88.25
2022-11-21T02:12:01.003Z,88.01
2022-11-21T02:13:02.551Z,88.12
2022-11-21T02:14:05.190Z,88.38
2022-11-21T02:15:08.146Z,88.19
2022-11-21T02:16:10.751Z,88.11
2022-11-21T02:17:12.358Z,87.92
2022-11-21T02:18:14.834Z,87.85
2022-11-21T02:19:24.290Z,88.20
2022-11-21T02:20:29.008Z,87.83
2022-11-21T02:21:41.951Z,88.51
2022-11-21T02:22:53.468Z,88.14
2022-11-21T02:24:00.965Z,88.12
2022-11-21T02:25:07.999Z,87.89
2022-11-21T02:26:10.779Z,88.18
2022-11-21T02:27:13.676Z,88.00
2022-11-21T02:28:19.249Z,88.34
2022-11-21T02:29:21.979Z,88.20
2022-11-21T02:30:23.806Z,88.07
2022-11-21T02:31:26.288Z,88.26
2022-11-21T02:32:33.508Z,88.26
2022-11-21T02:33:36.239Z,88.48
2022-11-21T02:34:37.740Z,88.31
2022-11-21T02:35:40.938Z,87.88
2022-11-21T02:36:45.707Z,88.03
2022-11-21T02:37:52.760Z,88.22
2022-11-21T02:38:54.270Z,88.23
2022-11-21T02:40:00.219Z,88.14
2022-11-21T02:41:13.022Z,88.04
2022-11-21T02:42:20.951Z,88.37
2022-11-21T02:43:24.665Z,88.26
2022-11-21T02:44:32.862Z,87.90
2022-11-21T02:45:39.018Z,88.30
2022-11-21T02:46:48.954Z,87.62
2022-11-21T02:47:58.158Z,87.82
2022-11-21T02:49:07.970Z,88.06
2022-11-21T02:50:14.548Z,87.87
2022-11-21T02:51:16.194Z,87.93
2022-11-21T02:52:18.649Z,87.93
2022-11-21T02:53:20.309Z,88.09
2022-11-21T02:54:22.825Z,87.94
2022-11-21T02:55:25.129Z,87.85
2022-11-21T02:56:28.961Z,88.28
2022-11-21T02:57:30.933Z,87.92
2022-11-21T02:58:33.413Z,87.88
2022-11-21T02:59:34.896Z,87.58
2022-11-21T03:00:40.954Z,87.85
2022-11-21T03:01:42.553Z,87.81
2022-11-21T03:02:45.715Z,87.67
2022-11-21T03:03:47.294Z,87.56
2022-11-21T03:04:49.898Z,87.67
2022-11-21T03:05:51.554Z,87.80
2022-11-21T03:06:54.052Z,88.13
2022-11-21T03:07:55.570Z,87.84
2022-11-21T03:08:58.103Z,87.95
2022-11-21T03:09:59.636Z,87.90
2022-11-21T03:11:02.097Z,87.87
2022-11-21T03:12:08.466Z,87.83
2022-11-21T03:13:10.057Z,88.16
2022-11-21T03:14:12.758Z,87.84
2022-11-21T03:15:15.605Z,88.02
2022-11-21T03:16:19.160Z,88.11
2022-11-21T03:17:20.665Z,87.92
2022-11-21T03:18:23.140Z,87.95
2022-11-21T03:19:24.653Z,87.88
2022-11-21T03:20:27.184Z,88.07
2022-11-21T03:21:28.682Z,87.72
2022-11-21T03:22:31.235Z,87.81
2022-11-21T03:23:32.776Z,87.71
2022-11-21T03:24:35.622Z,88.06
2022-11-21T03:25:37.204Z,87.82
2022-11-21T03:26:39.700Z,87.58
2022-11-21T03:27:42.698Z,87.98
2022-11-21T03:28:45.213Z,87.86
2022-11-21T03:29:46.946Z,87.81
2022-11-21T03:30:49.397Z,87.58
2022-11-21T03:31:50.966Z,87.92
2022-11-21T03:32:56.404Z,87.76
2022-11-21T03:33:57.925Z,87.65
2022-11-21T03:35:00.418Z,87.39
2022-11-21T03:36:01.956Z,87.35
2022-11-21T03:37:04.831Z,87.31
2022-11-21T03:38:06.319Z,87.48
2022-11-21T03:39:09.238Z,87.54
2022-11-21T03:40:11.853Z,87.78
2022-11-21T03:41:28.283Z,87.44
2022-11-21T03:42:30.743Z,87.49
2022-11-21T03:43:33.605Z,87.92
2022-11-21T03:44:36.064Z,87.58
2022-11-21T03:45:37.686Z,87.72
2022-11-21T03:46:42.466Z,87.80
2022-11-21T03:47:43.968Z,87.48
2022-11-21T03:48:46.464Z,87.69
2022-11-21T03:49:48.975Z,87.42
2022-11-21T03:50:51.509Z,87.61
2022-11-21T03:51:52.997Z,87.47
2022-11-21T03:52:55.432Z,87.57
2022-11-21T03:53:57.349Z,87.72
2022-11-21T03:54:59.953Z,87.91
2022-11-21T03:56:01.512Z,87.79
2022-11-21T03:57:04.176Z,87.52
2022-11-21T03:58:05.854Z,87.34
2022-11-21T03:59:09.777Z,87.12
2022-11-21T04:00:13.034Z,87.33
2022-11-21T04:01:16.122Z,87.62
2022-11-21T04:02:17.636Z,87.56
2022-11-21T04:03:20.211Z,87.35
2022-11-21T04:04:21.742Z,87.28
2022-11-21T04:05:24.201Z,87.77
2022-11-21T04:06:26.150Z,87.61
2022-11-21T04:07:30.235Z,87.40
2022-11-21T04:08:32.413Z,87.58
2022-11-21T04:09:34.928Z,87.21
2022-11-21T04:10:36.414Z,87.25
2022-11-21T04:11:38.975Z,87.11
2022-11-21T04:12:40.499Z,87.39
2022-11-21T04:13:43.439Z,87.40
2022-11-21T04:14:46.293Z,87.63
2022-11-21T04:15:48.782Z,87.68
2022-11-21T04:16:50.362Z,87.38
2022-11-21T04:17:52.975Z,87.30
2022-11-21T04:18:54.541Z,87.31
2022-11-21T04:19:57.022Z,87.52
2022-11-21T04:20:59.309Z,87.24
2022-11-21T04:22:01.845Z,87.49
2022-11-21T04:23:03.536Z,87.43
2022-11-21T04:24:07.044Z,87.02
2022-11-21T04:25:08.726Z,87.30
2022-11-21T04:26:11.238Z,87.35
2022-11-21T04:27:12.845Z,87.13
2022-11-21T04:28:15.466Z,87.10
2022-11-21T04:29:17.057Z,87.32
2022-11-21T04:30:20.920Z,87.13
2022-11-21T04:31:22.421Z,86.73
2022-11-21T04:32:24.929Z,87.18
2022-11-21T04:33:26.445Z,86.70
2022-11-21T04:34:29.492Z,86.68
2022-11-21T04:35:31.309Z,86.82
2022-11-21T04:36:33.857Z,86.66
2022-11-21T04:37:35.490Z,86.99
2022-11-21T04:38:38.120Z,86.95
2022-11-21T04:39:39.631Z,86.98
2022-11-21T04:40:44.342Z,86.92
2022-11-21T04:41:45.869Z,86.67
2022-11-21T04:42:49.186Z,86.40
2022-11-21T04:43:50.696Z,86.65
2022-11-21T04:44:53.233Z,86.66
2022-11-21T04:45:56.059Z,86.57
2022-11-21T04:47:04.889Z,86.38
2022-11-21T04:48:07.178Z,86.54
2022-11-21T04:49:09.609Z,86.38
2022-11-21T04:50:12.918Z,86.34
2022-11-21T04:51:15.369Z,86.46
2022-11-21T04:52:16.908Z,86.20
2022-11-21T04:53:19.420Z,86.48
2022-11-21T04:54:21.001Z,86.51
2022-11-21T04:55:26.578Z,86.42
2022-11-21T04:56:28.215Z,86.15
2022-11-21T04:57:32.099Z,86.48
2022-11-21T04:58:33.677Z,86.47
2022-11-21T04:59:36.258Z,86.09
2022-11-21T05:00:37.793Z,86.50
2022-11-21T05:01:41.605Z,85.86
2022-11-21T05:02:43.251Z,86.39
2022-11-21T05:03:45.732Z,86.08
2022-11-21T05:04:47.385Z,86.22
2022-11-21T05:05:50.028Z,86.11
2022-11-21T05:06:51.590Z,86.44
2022-11-21T05:07:54.026Z,85.87
2022-11-21T05:08:55.543Z,85.87
2022-11-21T05:09:58.222Z,85.87
2022-11-21T05:11:18.645Z,85.66
2022-11-21T05:12:38.763Z,85.79
2022-11-21T05:13:40.299Z,85.75
2022-11-21T05:14:42.883Z,85.81
2022-11-21T05:15:45.075Z,85.93
2022-11-21T05:16:48.967Z,85.79
2022-11-21T05:17:50.495Z,85.78
2022-11-21T05:18:52.921Z,86.01
2022-11-21T05:19:54.529Z,85.58
2022-11-21T05:20:57.558Z,85.99
2022-11-21T05:21:59.070Z,85.66
2022-11-21T05:23:01.538Z,85.44
2022-11-21T05:24:04.086Z,85.40
2022-11-21T05:25:06.248Z,85.75
2022-11-21T05:26:08.763Z,86.16
2022-11-21T05:27:10.447Z,85.65
2022-11-21T05:28:13.063Z,85.63
2022-11-21T05:29:14.611Z,85.93
2022-11-21T05:30:17.381Z,85.77
2022-11-21T05:31:18.917Z,85.94
2022-11-21T05:32:22.897Z,85.95
2022-11-21T05:33:24.404Z,85.60
2022-11-21T05:34:27.390Z,85.89
2022-11-21T05:35:29.175Z,85.89
2022-11-21T05:36:32.008Z,85.56
2022-11-21T05:37:33.611Z,85.79
2022-11-21T05:38:36.231Z,85.63
2022-11-21T05:39:37.743Z,85.65
2022-11-21T05:40:40.510Z,85.74
2022-11-21T05:41:43.032Z,86.02
2022-11-21T05:43:03.578Z,85.47
2022-11-21T05:44:05.350Z,85.70
2022-11-21T05:45:09.327Z,85.71
2022-11-21T05:46:10.816Z,85.87
2022-11-21T05:47:13.276Z,85.46
2022-11-21T05:48:16.289Z,85.34
2022-11-21T05:49:18.794Z,85.47
2022-11-21T05:50:20.331Z,85.21
2022-11-21T05:51:23.467Z,85.24
2022-11-21T05:52:25.016Z,85.29
2022-11-21T05:53:27.776Z,85.21
2022-11-21T05:54:29.516Z,84.95
2022-11-21T05:55:34.653Z,85.38
2022-11-21T05:56:37.089Z,85.31
2022-11-21T05:57:38.620Z,85.45
2022-11-21T05:58:41.347Z,85.13
2022-11-21T05:59:42.846Z,85.31
2022-11-21T06:00:45.419Z,85.10
2022-11-21T06:02:05.361Z,85.17
2022-11-21T06:03:27.780Z,85.36
2022-11-21T06:04:31.735Z,85.16
2022-11-21T06:05:33.340Z,85.32
2022-11-21T06:06:36.402Z,85.24
2022-11-21T06:07:37.948Z,84.99
2022-11-21T06:08:41.969Z,85.43
2022-11-21T06:09:43.541Z,85.17
2022-11-21T06:10:46.051Z,85.19
2022-11-21T06:11:47.603Z,85.31
2022-11-21T06:12:50.185Z,85.35
2022-11-21T06:13:53.425Z,85.11
2022-11-21T06:14:54.967Z,85.44
2022-11-21T06:16:01.410Z,85.06
2022-11-21T06:17:03.034Z,85.19
2022-11-21T06:18:05.464Z,84.91
2022-11-21T06:19:07.092Z,85.05
2022-11-21T06:20:12.368Z,84.85
2022-11-21T06:21:16.087Z,84.65
2022-11-21T06:22:18.625Z,85.20
2022-11-21T06:23:21.373Z,85.22
2022-11-21T06:24:22.867Z,85.07
2022-11-21T06:25:25.561Z,84.76
2022-11-21T06:26:28.008Z,85.12
2022-11-21T06:27:30.588Z,84.91
2022-11-21T06:28:33.969Z,85.10
2022-11-21T06:29:36.684Z,84.80
2022-11-21T06:30:39.520Z,85.21
2022-11-21T06:31:41.970Z,85.17
2022-11-21T06:32:43.544Z,85.17
2022-11-21T06:33:46.897Z,84.87
2022-11-21T06:34:48.487Z,85.02
2022-11-21T06:35:52.329Z,85.14
2022-11-21T06:36:54.169Z,84.86
2022-11-21T06:37:57.674Z,85.18
2022-11-21T06:38:59.191Z,84.92
2022-11-21T06:40:01.741Z,85.07
2022-11-21T06:41:07.368Z,84.94
2022-11-21T06:42:09.908Z,85.27
2022-11-21T06:43:11.402Z,85.36
2022-11-21T06:44:14.005Z,85.24
2022-11-21T06:45:15.745Z,85.08
2022-11-21T06:46:18.702Z,85.30
2022-11-21T06:47:20.477Z,85.27
2022-11-21T06:48:22.932Z,84.94
2022-11-21T06:49:24.507Z,85.28
2022-11-21T06:50:27.017Z,85.35
2022-11-21T06:51:29.966Z,85.60
2022-11-21T06:52:33.639Z,85.44
2022-11-21T06:53:35.401Z,85.29
2022-11-21T06:54:38.129Z,85.45
2022-11-21T06:55:40.640Z,85.41
2022-11-21T06:56:42.189Z,85.33
2022-11-21T06:57:44.694Z,85.37
2022-11-21T06:58:46.219Z,85.36
2022-11-21T06:59:48.731Z,85.29
2022-11-21T07:00:51.359Z,85.53
2022-11-21T07:01:53.856Z,85.66
2022-11-21T07:03:02.926Z,85.50
2022-11-21T07:04:06.122Z,85.44
2022-11-21T07:05:08.277Z,85.27
2022-11-21T07:06:10.755Z,85.88
2022-11-21T07:07:13.756Z,85.76
2022-11-21T07:08:16.554Z,85.65
2022-11-21T07:09:32.715Z,85.75
2022-11-21T07:10:36.428Z,85.54
2022-11-21T07:11:37.913Z,85.88
2022-11-21T07:12:58.053Z,85.85
2022-11-21T07:14:03.707Z,85.85
2022-11-21T07:15:09.166Z,85.89
2022-11-21T07:16:14.710Z,85.98
2022-11-21T07:17:16.332Z,85.87
2022-11-21T07:18:18.854Z,85.72
2022-11-21T07:19:20.376Z,85.73
2022-11-21T07:20:23.317Z,85.85
2022-11-21T07:21:24.786Z,85.92
2022-11-21T07:22:28.573Z,85.97
2022-11-21T07:23:31.309Z,86.03
2022-11-21T07:24:33.848Z,86.06
2022-11-21T07:25:36.927Z,86.08
2022-11-21T07:26:39.611Z,86.04
2022-11-21T07:27:41.195Z,86.26
2022-11-21T07:28:43.976Z,86.27
2022-11-21T07:29:45.526Z,86.08
2022-11-21T07:30:48.091Z,86.24
2022-11-21T07:31:49.606Z,86.15
2022-11-21T07:32:56.359Z,86.24
2022-11-21T07:33:58.887Z,86.41
2022-11-21T07:35:00.404Z,86.24
2022-11-21T07:36:02.994Z,86.24
2022-11-21T07:37:05.453Z,86.30
2022-11-21T07:38:09.297Z,86.41
2022-11-21T07:39:10.774Z,86.12
2022-11-21T07:40:14.471Z,86.27
2022-11-21T07:41:16.014Z,86.36
2022-11-21T07:42:18.543Z,86.44
2022-11-21T07:43:20.128Z,86.48
2022-11-21T07:44:22.589Z,86.14
2022-11-21T07:45:24.104Z,86.33
2022-11-21T07:46:26.623Z,86.35
2022-11-21T07:47:29.200Z,86.12
2022-11-21T07:48:30.775Z,86.10
2022-11-21T07:49:33.455Z,86.29
2022-11-21T07:50:35.092Z,86.45
2022-11-21T07:51:37.840Z,86.49
2022-11-21T07:52:40.515Z,86.26
2022-11-21T07:53:44.427Z,86.51
2022-11-21T07:54:46.928Z,86.33
2022-11-21T07:55:48.492Z,86.54
2022-11-21T07:56:51.049Z,86.66
2022-11-21T07:58:01.024Z,86.43
2022-11-21T07:59:02.615Z,86.54
2022-11-21T08:00:05.757Z,86.54
2022-11-21T08:01:08.661Z,86.68
2022-11-21T08:02:18.854Z,86.58
2022-11-21T08:03:22.522Z,86.56
2022-11-21T08:04:25.097Z,86.59
2022-11-21T08:05:27.057Z,86.79
2022-11-21T08:06:29.526Z,86.81
2022-11-21T08:07:34.806Z,86.69
2022-11-21T08:08:37.303Z,86.67
2022-11-21T08:09:40.509Z,86.60
2022-11-21T08:10:44.630Z,86.70
2022-11-21T08:11:46.173Z,86.51
2022-11-21T08:12:48.614Z,86.67
2022-11-21T08:13:51.065Z,86.84
2022-11-21T08:14:52.608Z,86.63
2022-11-21T08:15:55.064Z,86.73
2022-11-21T08:16:56.603Z,86.79
2022-11-21T08:17:59.125Z,86.71
2022-11-21T08:19:00.753Z,86.76
2022-11-21T08:20:04.256Z,86.79
2022-11-21T08:21:05.885Z,86.76
2022-11-21T08:22:08.359Z,86.78
2022-11-21T08:23:10.754Z,86.95
2022-11-21T08:24:14.715Z,86.76
2022-11-21T08:25:18.797Z,86.90
2022-11-21T08:26:21.355Z,86.74
2022-11-21T08:27:24.350Z,86.81
2022-11-21T08:28:26.863Z,86.82
2022-11-21T08:29:28.670Z,86.92
2022-11-21T08:30:32.041Z,86.63
2022-11-21T08:31:33.552Z,86.81
2022-11-21T08:32:36.123Z,86.64
2022-11-21T08:33:37.716Z,86.58
2022-11-21T08:34:40.210Z,86.53
2022-11-21T08:35:42.150Z,86.42
2022-11-21T08:36:44.689Z,86.62
2022-11-21T08:37:47.165Z,86.50
2022-11-21T08:38:48.783Z,86.72
2022-11-21T08:39:51.257Z,86.62
2022-11-21T08:41:13.353Z,86.62
2022-11-21T08:42:18.904Z,86.65
2022-11-21T08:43:20.410Z,86.36
2022-11-21T08:44:22.894Z,86.43
2022-11-21T08:45:25.820Z,86.45
2022-11-21T08:46:28.128Z,86.55
2022-11-21T08:47:33.250Z,86.43
2022-11-21T08:48:34.920Z,86.21
2022-11-21T08:49:37.369Z,86.66
2022-11-21T08:50:39.224Z,86.48
2022-11-21T08:51:41.707Z,86.33
2022-11-21T08:52:44.536Z,86.27
2022-11-21T08:53:47.030Z,86.38
2022-11-21T08:54:49.567Z,86.51
2022-11-21T08:55:51.083Z,86.30
2022-11-21T08:56:55.164Z,86.18
2022-11-21T08:57:57.761Z,86.33
2022-11-21T08:58:59.516Z,86.13
2022-11-21T09:00:02.005Z,86.37
2022-11-21T09:01:06.238Z,86.13
2022-11-21T09:02:11.870Z,86.14
2022-11-21T09:03:15.796Z,86.00
2022-11-21T09:04:21.697Z,86.00
2022-11-21T09:05:24.542Z,86.17
2022-11-21T09:06:26.097Z,86.23
2022-11-21T09:07:28.671Z,86.11
2022-11-21T09:08:30.413Z,86.10
2022-11-21T09:09:33.822Z,86.24
2022-11-21T09:10:35.947Z,85.97
2022-11-21T09:11:38.417Z,86.22
2022-11-21T09:12:42.343Z,86.03
2022-11-21T09:14:04.791Z,86.11
2022-11-21T09:15:26.024Z,86.07
2022-11-21T09:16:46.477Z,85.92
2022-11-21T09:18:03.443Z,85.93
2022-11-21T09:19:05.877Z,85.85
2022-11-21T09:20:09.484Z,85.87
2022-11-21T09:21:14.406Z,85.69
2022-11-21T09:22:16.851Z,85.81
2022-11-21T09:23:19.337Z,85.69
2022-11-21T09:24:21.927Z,85.64
2022-11-21T09:25:23.448Z,85.82
2022-11-21T09:26:25.927Z,85.80
2022-11-21T09:27:27.675Z,85.74
2022-11-21T09:28:31.522Z,85.63
2022-11-21T09:29:33.990Z,85.56
2022-11-21T09:30:36.661Z,85.66
2022-11-21T09:31:39.347Z,85.56
2022-11-21T09:32:41.851Z,85.29
2022-11-21T09:33:44.412Z,85.30
2022-11-21T09:34:47.058Z,85.50
2022-11-21T09:35:48.564Z,85.11
2022-11-21T09:36:51.032Z,85.15
2022-11-21T09:37:52.874Z,85.20
2022-11-21T09:38:55.380Z,84.88
2022-11-21T09:39:56.925Z,85.04
2022-11-21T09:41:32.280Z,85.16
2022-11-21T09:42:54.391Z,85.08
2022-11-21T09:44:04.300Z,84.99
2022-11-21T09:45:09.990Z,84.79
2022-11-21T09:46:16.001Z,85.04
2022-11-21T09:47:22.987Z,84.73
2022-11-21T09:49:23.566Z,84.93
2022-11-21T09:50:31.995Z,84.78
2022-11-21T09:51:38.378Z,84.81
2022-11-21T09:52:47.016Z,84.68
2022-11-21T09:53:57.975Z,84.82
2022-11-21T09:55:05.587Z,84.80
2022-11-21T09:56:12.728Z,84.92
2022-11-21T09:57:17.022Z,84.61
2022-11-21T09:58:27.100Z,84.89
2022-11-21T09:59:35.560Z,84.60
2022-11-21T10:00:38.244Z,84.68
2022-11-21T10:01:40.827Z,84.78
2022-11-21T10:02:43.472Z,84.58
2022-11-21T10:03:48.261Z,84.92
2022-11-21T10:04:51.461Z,84.67
2022-11-21T10:05:57.549Z,84.68
2022-11-21T10:07:05.362Z,84.55
2022-11-21T10:08:17.155Z,84.53
2022-11-21T10:09:28.508Z,84.48
2022-11-21T10:10:46.055Z,84.38
2022-11-21T10:12:13.388Z,84.23
2022-11-21T10:13:26.451Z,84.24
2022-11-21T10:14:45.805Z,84.17
2022-11-21T10:15:59.712Z,84.15
2022-11-21T10:17:14.124Z,84.21
2022-11-21T10:18:36.912Z,84.40
2022-11-21T10:19:57.649Z,84.17
2022-11-21T10:21:07.539Z,84.29
2022-11-21T10:22:30.771Z,84.20
2022-11-21T10:23:44.714Z,84.31
2022-11-21T10:24:57.504Z,84.08
2022-11-21T10:26:15.567Z,84.16
2022-11-21T10:27:22.616Z,84.12
2022-11-21T10:28:41.828Z,83.93
2022-11-21T10:29:53.175Z,83.91
2022-11-21T10:31:00.017Z,84.06
2022-11-21T10:32:04.747Z,83.94
2022-11-21T10:33:16.024Z,83.99
2022-11-21T10:34:22.478Z,84.17
2022-11-21T10:35:27.450Z,83.99
2022-11-21T10:36:37.501Z,83.88
2022-11-21T10:37:45.658Z,84.08
2022-11-21T10:38:50.202Z,84.04
2022-11-21T10:39:55.570Z,83.97
2022-11-21T10:41:04.472Z,83.89
2022-11-21T10:42:20.255Z,84.07
2022-11-21T10:43:53.891Z,84.00
2022-11-21T10:45:19.080Z,84.00
2022-11-21T10:46:20.910Z,83.75
2022-11-21T10:47:28.307Z,83.75
2022-11-21T10:48:30.821Z,83.75
2022-11-21T10:49:34.367Z,83.46
2022-11-21T10:50:48.367Z,83.57
2022-11-21T10:51:57.582Z,83.41
2022-11-21T10:53:29.756Z,83.50
2022-11-21T10:54:34.319Z,83.26
2022-11-21T10:55:36.866Z,83.34
2022-11-21T10:56:38.790Z,83.12
2022-11-21T10:57:45.385Z,83.07
2022-11-21T10:58:50.085Z,83.00
2022-11-21T11:00:02.165Z,82.87
2022-11-21T11:01:21.577Z,82.91
2022-11-21T11:02:26.003Z,83.04
2022-11-21T11:03:30.005Z,82.91
2022-11-21T11:04:43.917Z,82.86
2022-11-21T11:05:57.222Z,82.90
2022-11-21T11:07:21.327Z,82.82
2022-11-21T11:08:23.866Z,82.92
2022-11-21T11:09:31.709Z,82.74
2022-11-21T11:10:36.144Z,83.02
2022-11-21T11:11:38.630Z,82.70
2022-11-21T11:13:02.182Z,82.80
2022-11-21T11:14:15.593Z,82.55
2022-11-21T11:15:21.708Z,82.61
2022-11-21T11:16:26.043Z,82.63
2022-11-21T11:17:29.906Z,82.69
2022-11-21T11:18:35.212Z,82.48
2022-11-21T11:19:40.311Z,82.66
2022-11-21T11:20:45.382Z,82.63
2022-11-21T11:21:49.552Z,82.65
2022-11-21T11:22:51.290Z,82.72
2022-11-21T11:23:55.446Z,82.59
2022-11-21T11:25:00.479Z,82.76
2022-11-21T11:26:03.491Z,82.65
2022-11-21T11:27:05.982Z,82.73
2022-11-21T11:28:08.118Z,82.82
2022-11-21T11:29:15.435Z,82.62
2022-11-21T11:30:21.226Z,82.53
2022-11-21T11:31:22.775Z,82.80
2022-11-21T11:32:25.491Z,82.55
2022-11-21T11:33:32.972Z,82.77
2022-11-21T11:34:41.004Z,82.69
2022-11-21T11:35:43.579Z,82.64
2022-11-21T11:37:03.931Z,82.76
2022-11-21T11:38:10.165Z,82.60
2022-11-21T11:39:21.748Z,82.58
2022-11-21T11:40:29.594Z,82.61
2022-11-21T11:42:16.442Z,82.38
2022-11-21T11:43:52.273Z,82.25
2022-11-21T11:45:33.322Z,82.52
2022-11-21T11:47:03.526Z,82.33
2022-11-21T11:48:09.893Z,82.34
2022-11-21T11:49:21.075Z,82.30
2022-11-21T11:50:26.926Z,82.32
2022-11-21T11:51:33.885Z,82.10
2022-11-21T11:52:44.179Z,82.20
2022-11-21T11:53:50.814Z,82.20
2022-11-21T11:54:59.018Z,82.22
2022-11-21T11:56:06.091Z,82.08
2022-11-21T11:57:09.648Z,82.11
2022-11-21T11:58:21.429Z,82.17
2022-11-21T11:59:29.380Z,82.08
2022-11-21T12:00:39.244Z,82.01
2022-11-21T12:01:50.140Z,81.83
2022-11-21T12:02:59.754Z,81.66
2022-11-21T12:04:07.076Z,81.60
2022-11-21T12:05:15.589Z,81.54
2022-11-21T12:06:21.938Z,81.53
2022-11-21T12:08:33.034Z,81.33
2022-11-21T12:08:58.972Z,81.41
2022-11-21T12:10:06.832Z,81.36
2022-11-21T12:11:41.805Z,81.39
2022-11-21T12:12:49.973Z,81.41
2022-11-21T12:13:55.621Z,81.16
2022-11-21T12:15:30.932Z,81.21
2022-11-21T12:16:34.999Z,81.00
2022-11-21T12:17:43.066Z,81.04
2022-11-21T12:18:54.261Z,81.03
2022-11-21T12:19:58.779Z,80.88
2022-11-21T12:21:08.096Z,80.75
2022-11-21T12:22:12.514Z,80.72
2022-11-21T12:23:15.942Z,80.66
2022-11-21T12:24:20.964Z,80.56
2022-11-21T12:25:30.013Z,80.46
2022-11-21T12:26:42.250Z,80.49
2022-11-21T12:27:50.551Z,80.34
2022-11-21T12:29:06.994Z,80.22
2022-11-21T12:30:21.787Z,80.24
2022-11-21T12:31:32.682Z,80.08
2022-11-21T12:32:56.983Z,80.29
2022-11-21T12:34:11.595Z,80.28
2022-11-21T12:35:27.025Z,80.10
2022-11-21T12:36:39.388Z,80.16
2022-11-21T12:37:48.136Z,80.12
2022-11-21T12:39:03.935Z,80.10
2022-11-21T12:40:17.857Z,80.09
2022-11-21T12:41:46.582Z,80.11
2022-11-21T12:43:04.091Z,80.23
2022-11-21T12:44:20.199Z,80.02
2022-11-21T12:45:31.585Z,79.96
2022-11-21T12:46:42.186Z,79.83
2022-11-21T12:48:32.810Z,79.86
2022-11-21T12:50:02.186Z,79.66
2022-11-21T12:52:03.401Z,79.85
2022-11-21T12:53:31.478Z,79.89
2022-11-21T12:54:53.332Z,79.74
2022-11-21T12:56:08.873Z,79.75
2022-11-21T12:57:11.880Z,79.86
2022-11-21T12:58:27.219Z,79.59
2022-11-21T12:59:31.532Z,79.67
2022-11-21T13:00:43.910Z,79.55
2022-11-21T13:01:59.827Z,79.58
2022-11-21T13:03:33.318Z,79.43
2022-11-21T13:04:41.507Z,79.33
2022-11-21T13:05:48.105Z,79.42
2022-11-21T13:06:52.405Z,79.27
2022-11-21T13:08:06.695Z,79.15
2022-11-21T13:09:14.908Z,79.01
2022-11-21T13:10:18.360Z,78.89
2022-11-21T13:11:57.268Z,78.79
2022-11-21T13:13:07.738Z,78.83
2022-11-21T13:14:18.004Z,78.81
2022-11-21T13:15:26.402Z,78.69
2022-11-21T13:16:44.859Z,78.47
2022-11-21T13:17:53.270Z,78.32
2022-11-21T13:18:54.957Z,78.28
2022-11-21T13:20:01.484Z,78.22
2022-11-21T13:21:04.148Z,77.97
2022-11-21T13:22:05.685Z,77.96
2022-11-21T13:23:38.474Z,77.80
2022-11-21T13:24:57.968Z,77.85
2022-11-21T13:26:00.466Z,77.76
2022-11-21T13:27:02.124Z,77.63
2022-11-21T13:28:24.833Z,77.47
2022-11-21T13:29:27.790Z,77.42
2022-11-21T13:30:29.520Z,77.28
2022-11-21T13:31:33.434Z,77.17
2022-11-21T13:32:38.954Z,77.06
2022-11-21T13:33:48.339Z,77.19
2022-11-21T13:34:50.909Z,77.22
2022-11-21T13:35:57.316Z,76.83
2022-11-21T13:37:00.090Z,76.66
2022-11-21T13:38:03.299Z,76.48
2022-11-21T13:39:30.938Z,76.18
2022-11-21T13:40:37.703Z,76.00
2022-11-21T13:42:20.221Z,75.86
2022-11-21T13:43:33.070Z,75.69
2022-11-21T13:44:41.313Z,75.61
2022-11-21T13:45:45.501Z,75.30
2022-11-21T13:47:00.790Z,75.09
2022-11-21T13:48:18.101Z,75.01
2022-11-21T13:49:26.415Z,74.69
2022-11-21T13:50:47.757Z,74.73
2022-11-21T13:51:54.850Z,74.51
2022-11-21T13:53:04.574Z,74.54
2022-11-21T13:54:26.901Z,74.28
2022-11-21T13:55:57.911Z,74.27
2022-11-21T13:57:13.450Z,74.15
2022-11-21T13:58:29.671Z,74.16
2022-11-21T14:00:02.116Z,74.01
2022-11-21T14:01:24.092Z,74.02
2022-11-21T14:02:44.449Z,74.00
2022-11-21T14:04:04.288Z,73.85
2022-11-21T14:05:40.227Z,73.83
2022-11-21T14:06:44.027Z,73.63
2022-11-21T14:07:48.343Z,73.49
2022-11-21T14:09:21.427Z,73.42
2022-11-21T14:10:34.100Z,73.34